sensor_id;sensor_type;location;lat;lon;timestamp;P1;durP1;ratioP1;P2;durP2;ratioP2
60655;SDS011;46477;53.616;10.064;2022-08-18T18:45:24;6.80;;;4.78;;
60655;SDS011;46477;53.616;10.064;2022-08-18T18:48:08;7.43;;;5.80;;
60655;SDS011;46477;53.616;10.064;2022-08-18T18:50:42;7.75;;;5.93;;
60655;SDS011;46477;53.616;10.064;2022-08-18T18:56:08;7.97;;;5.63;;
60655;SDS011;46477;53.616;10.064;2022-08-18T18:58:54;8.82;;;6.35;;
60655;SDS011;46477;53.616;10.064;2022-08-18T19:04:42;6.30;;;4.50;;
60655;SDS011;46477;53.616;10.064;2022-08-18T19:07:14;6.30;;;3.95;;
60655;SDS011;46477;53.616;10.064;2022-08-18T19:10:07;6.45;;;4.43;;
60655;SDS011;46477;53.616;10.064;2022-08-18T19:12:42;7.32;;;4.93;;
60655;SDS011;46477;53.616;10.064;2022-08-18T19:15:14;7.25;;;4.60;;
60655;SDS011;46477;53.616;10.064;2022-08-18T19:17:44;8.63;;;4.65;;
60655;SDS011;46477;53.616;10.064;2022-08-18T19:20:16;6.28;;;4.45;;
60655;SDS011;46477;53.616;10.064;2022-08-18T19:22:55;6.60;;;3.92;;
60655;SDS011;46477;53.616;10.064;2022-08-18T19:25:30;5.75;;;3.90;;
60655;SDS011;46477;53.616;10.064;2022-08-18T19:30:36;6.50;;;4.50;;
60655;SDS011;46477;53.616;10.064;2022-08-18T19:33:05;8.50;;;4.10;;
60655;SDS011;46477;53.616;10.064;2022-08-18T19:35:54;6.65;;;4.07;;
60655;SDS011;46477;53.616;10.064;2022-08-18T19:43:42;7.80;;;3.88;;
60655;SDS011;46477;53.616;10.064;2022-08-18T19:46:20;8.30;;;4.97;;
60655;SDS011;46477;53.616;10.064;2022-08-18T19:53:57;6.43;;;4.00;;
60655;SDS011;46477;53.616;10.064;2022-08-18T19:56:50;6.95;;;3.58;;
60655;SDS011;46477;53.616;10.064;2022-08-18T20:05:46;6.85;;;4.78;;
60655;SDS011;46477;53.616;10.064;2022-08-18T20:13:39;9.20;;;6.60;;
60655;SDS011;46477;53.616;10.064;2022-08-18T20:16:10;10.00;;;7.00;;
60655;SDS011;46477;53.616;10.064;2022-08-18T20:18:53;6.65;;;4.50;;
60655;SDS011;46477;53.616;10.064;2022-08-18T20:21:21;7.82;;;4.97;;
60655;SDS011;46477;53.616;10.064;2022-08-18T20:29:10;7.00;;;4.53;;
60655;SDS011;46477;53.616;10.064;2022-08-18T20:34:22;6.70;;;4.10;;
60655;SDS011;46477;53.616;10.064;2022-08-18T20:36:50;5.93;;;3.70;;
60655;SDS011;46477;53.616;10.064;2022-08-18T20:39:33;6.25;;;4.53;;
60655;SDS011;46477;53.616;10.064;2022-08-18T20:47:35;10.15;;;7.13;;
60655;SDS011;46477;53.616;10.064;2022-08-18T20:50:30;9.23;;;7.47;;
60655;SDS011;46477;53.616;10.064;2022-08-18T20:53:56;8.82;;;6.60;;
60655;SDS011;46477;53.616;10.064;2022-08-18T20:58:51;9.15;;;7.00;;
60655;SDS011;46477;53.616;10.064;2022-08-18T21:01:22;8.70;;;6.18;;
60655;SDS011;46477;53.616;10.064;2022-08-18T21:03:54;8.90;;;5.30;;
60655;SDS011;46477;53.616;10.064;2022-08-18T21:06:19;7.35;;;4.75;;
60655;SDS011;46477;53.616;10.064;2022-08-18T21:08:51;7.32;;;5.07;;
60655;SDS011;46477;53.616;10.064;2022-08-18T21:11:23;6.97;;;4.55;;
60655;SDS011;46477;53.616;10.064;2022-08-18T21:13:52;8.13;;;5.03;;
60655;SDS011;46477;53.616;10.064;2022-08-18T21:18:49;7.95;;;4.60;;
60655;SDS011;46477;53.616;10.064;2022-08-18T21:21:25;7.47;;;4.13;;
60655;SDS011;46477;53.616;10.064;2022-08-18T21:23:54;9.40;;;5.18;;
60655;SDS011;46477;53.616;10.064;2022-08-18T21:26:22;8.93;;;5.40;;
60655;SDS011;46477;53.616;10.064;2022-08-18T21:28:51;7.45;;;4.60;;
60655;SDS011;46477;53.616;10.064;2022-08-18T21:31:24;6.38;;;4.38;;
60655;SDS011;46477;53.616;10.064;2022-08-18T21:33:55;7.97;;;6.55;;
60655;SDS011;46477;53.616;10.064;2022-08-18T21:36:27;9.35;;;4.78;;
60655;SDS011;46477;53.616;10.064;2022-08-18T21:38:56;8.88;;;6.10;;
60655;SDS011;46477;53.616;10.064;2022-08-18T21:41:24;7.60;;;5.28;;
60655;SDS011;46477;53.616;10.064;2022-08-18T21:44:05;7.50;;;4.32;;
60655;SDS011;46477;53.616;10.064;2022-08-18T21:46:32;7.63;;;5.00;;
60655;SDS011;46477;53.616;10.064;2022-08-18T21:48:59;5.88;;;4.20;;
60655;SDS011;46477;53.616;10.064;2022-08-18T21:51:31;7.45;;;4.18;;
60655;SDS011;46477;53.616;10.064;2022-08-18T21:54:06;7.07;;;4.30;;
60655;SDS011;46477;53.616;10.064;2022-08-18T21:56:34;6.35;;;4.00;;
60655;SDS011;46477;53.616;10.064;2022-08-18T22:06:52;8.65;;;4.28;;
60655;SDS011;46477;53.616;10.064;2022-08-18T22:09:24;7.53;;;4.77;;
60655;SDS011;46477;53.616;10.064;2022-08-18T22:26:09;9.43;;;5.38;;
60655;SDS011;46477;53.616;10.064;2022-08-18T22:31:33;8.13;;;5.80;;
60655;SDS011;46477;53.616;10.064;2022-08-18T22:34:04;8.43;;;5.80;;
60655;SDS011;46477;53.616;10.064;2022-08-18T22:36:35;10.23;;;6.97;;
60655;SDS011;46477;53.616;10.064;2022-08-18T22:39:03;8.55;;;5.63;;
60655;SDS011;46477;53.616;10.064;2022-08-18T22:41:31;10.10;;;5.82;;
60655;SDS011;46477;53.616;10.064;2022-08-18T22:43:57;7.50;;;5.53;;
60655;SDS011;46477;53.616;10.064;2022-08-18T22:46:23;6.97;;;5.10;;
60655;SDS011;46477;53.616;10.064;2022-08-18T22:48:48;8.30;;;5.30;;
60655;SDS011;46477;53.616;10.064;2022-08-18T22:51:15;7.00;;;5.10;;
60655;SDS011;46477;53.616;10.064;2022-08-18T22:53:42;8.32;;;5.60;;
60655;SDS011;46477;53.616;10.064;2022-08-18T22:56:10;8.88;;;6.40;;
60655;SDS011;46477;53.616;10.064;2022-08-18T22:58:37;9.27;;;6.50;;
60655;SDS011;46477;53.616;10.064;2022-08-18T23:03:39;9.05;;;5.95;;
60655;SDS011;46477;53.616;10.064;2022-08-18T23:06:05;9.88;;;6.32;;
60655;SDS011;46477;53.616;10.064;2022-08-18T23:08:32;8.77;;;6.65;;
60655;SDS011;46477;53.616;10.064;2022-08-18T23:10:58;9.00;;;6.60;;
60655;SDS011;46477;53.616;10.064;2022-08-18T23:13:24;8.27;;;5.97;;
60655;SDS011;46477;53.616;10.064;2022-08-18T23:15:51;9.07;;;6.90;;
60655;SDS011;46477;53.616;10.064;2022-08-18T23:18:21;10.20;;;6.72;;
60655;SDS011;46477;53.616;10.064;2022-08-18T23:20:48;8.43;;;6.43;;
60655;SDS011;46477;53.616;10.064;2022-08-18T23:23:16;8.68;;;6.03;;
60655;SDS011;46477;53.616;10.064;2022-08-18T23:25:43;10.75;;;6.88;;
60655;SDS011;46477;53.616;10.064;2022-08-18T23:28:17;9.40;;;6.15;;
60655;SDS011;46477;53.616;10.064;2022-08-18T23:30:44;9.60;;;6.57;;
60655;SDS011;46477;53.616;10.064;2022-08-18T23:33:11;10.55;;;6.35;;
60655;SDS011;46477;53.616;10.064;2022-08-18T23:35:39;10.75;;;6.80;;
60655;SDS011;46477;53.616;10.064;2022-08-18T23:38:05;11.88;;;8.10;;
60655;SDS011;46477;53.616;10.064;2022-08-18T23:40:34;10.73;;;7.57;;
60655;SDS011;46477;53.616;10.064;2022-08-18T23:43:00;8.93;;;6.65;;
60655;SDS011;46477;53.616;10.064;2022-08-18T23:45:26;9.75;;;7.13;;
60655;SDS011;46477;53.616;10.064;2022-08-18T23:47:53;8.80;;;6.25;;
60655;SDS011;46477;53.616;10.064;2022-08-18T23:50:18;9.80;;;6.78;;
60655;SDS011;46477;53.616;10.064;2022-08-18T23:52:46;10.90;;;7.28;;
60655;SDS011;46477;53.616;10.064;2022-08-18T23:55:12;9.25;;;6.82;;
60655;SDS011;46477;53.616;10.064;2022-08-18T23:57:38;10.38;;;6.78;;
